Route Details

Aircraft Information
Group: Hub to Hub
Types: B744, MD11, B763, B762, B752, B738
Route Data
Distance: 827nm
Duration: 0h 00m
Origin METAR: KMIA 051353Z 11007KT 10SM FEW020 SCT250 26/21 A2999 RMK AO2 SLP157 T02560206 $
Dest. METAR: KCVG 051352Z 19011KT 10SM SCT090 BKN250 15/13 A2995 RMK AO2 SLP136 TCU DSNT SW T01440133
Freight Data
(for Mar 5, 2024)
Load Factor:
23%
Manifested Cargo: 41,785lbs
Financial History
Total Freight: 651,459lbs
Average Load: 0lbs/flt
Fuel Used: 215,627lbs
Avg. Fuel Used: 0lbs/flt
Fuel Expense: $219,322
Avg. Fuel Expense: $0
Avg. Fuel Cost: $0/lbs
Total Gross Income: $1,155,047
Pilot Pay: $1,391
Total Expenses: $162,178
Total Revenue: $770,386
Average Revenue: $0

Capitol Logistics 226




KMIA
Miami International Airport
Miami, Florida
KCVG
Cincinnati/Northern Kentucky International Airport
Covington, Kentucky